createdAt,value
2019-03-08T00:02:24.043Z,7.40
2019-03-08T00:04:52.466Z,7.40
2019-03-08T00:07:21.027Z,7.30
2019-03-08T00:09:48.901Z,7.30
2019-03-08T00:12:16.810Z,7.20
2019-03-08T00:14:45.302Z,7.20
2019-03-08T00:17:13.275Z,7.20
2019-03-08T00:19:46.097Z,7.20
2019-03-08T00:22:13.954Z,7.10
2019-03-08T00:24:42.326Z,7.10
2019-03-08T00:27:14.488Z,7.10
2019-03-08T00:29:43.268Z,7.10
2019-03-08T00:32:11.006Z,7.10
2019-03-08T00:34:39.519Z,7.10
2019-03-08T00:37:09.102Z,7.10
2019-03-08T00:39:37.678Z,7.10
2019-03-08T00:42:05.136Z,7.10
2019-03-08T00:44:32.841Z,7.10
2019-03-08T00:47:00.455Z,7.10
2019-03-08T00:49:29.254Z,7.10
2019-03-08T00:51:57.467Z,7.10
2019-03-08T00:54:27.894Z,7.00
2019-03-08T00:56:55.743Z,7.00
2019-03-08T00:59:24.175Z,7.00
2019-03-08T01:01:52.102Z,6.90
2019-03-08T01:04:19.908Z,6.90
2019-03-08T01:06:50.223Z,6.90
2019-03-08T01:09:18.341Z,6.80
2019-03-08T01:11:46.375Z,6.80
2019-03-08T01:14:14.333Z,6.80
2019-03-08T01:16:42.226Z,6.80
2019-03-08T01:19:12.545Z,6.80
2019-03-08T01:21:40.336Z,6.80
2019-03-08T01:24:08.258Z,6.70
2019-03-08T01:26:36.197Z,6.70
2019-03-08T01:29:04.029Z,6.70
2019-03-08T01:31:33.595Z,6.70
2019-03-08T01:34:01.542Z,6.70
2019-03-08T01:36:29.784Z,6.70
2019-03-08T01:38:57.684Z,6.70
2019-03-08T01:41:25.643Z,6.70
2019-03-08T01:43:53.701Z,6.70
2019-03-08T01:46:22.571Z,6.70
2019-03-08T01:48:50.791Z,6.70
2019-03-08T01:51:19.229Z,6.70
2019-03-08T01:53:47.420Z,6.60
2019-03-08T01:56:15.239Z,6.70
2019-03-08T01:58:43.463Z,6.60
2019-03-08T02:01:11.851Z,6.60
2019-03-08T02:03:41.467Z,6.60
2019-03-08T02:06:09.143Z,6.60
2019-03-08T02:08:36.983Z,6.60
2019-03-08T02:11:05.406Z,6.50
2019-03-08T02:13:34.915Z,6.50
2019-03-08T02:16:02.882Z,6.50
2019-03-08T02:18:33.696Z,6.50
2019-03-08T02:21:06.648Z,6.50
2019-03-08T02:23:33.441Z,6.50
2019-03-08T02:26:00.906Z,6.50
2019-03-08T02:28:28.809Z,6.50
2019-03-08T02:30:59.062Z,6.50
2019-03-08T02:33:26.854Z,6.60
2019-03-08T02:35:54.921Z,6.60
2019-03-08T02:38:23.277Z,6.60
2019-03-08T02:40:51.248Z,6.60
2019-03-08T02:43:19.238Z,6.60
2019-03-08T02:45:47.570Z,6.60
2019-03-08T02:48:15.211Z,6.60
2019-03-08T02:50:44.320Z,6.60
2019-03-08T02:53:12.160Z,6.60
2019-03-08T02:55:40.682Z,6.60
2019-03-08T02:58:08.709Z,6.60
2019-03-08T03:00:45.914Z,6.60
2019-03-08T03:03:13.832Z,6.60
2019-03-08T03:05:42.040Z,6.60
2019-03-08T03:08:09.484Z,6.60
2019-03-08T03:10:38.035Z,6.60
2019-03-08T03:13:06.526Z,6.60
2019-03-08T03:15:34.165Z,6.60
2019-03-08T03:18:02.229Z,6.60
2019-03-08T03:20:30.401Z,6.60
2019-03-08T03:23:00.032Z,6.60
2019-03-08T03:25:29.354Z,6.60
2019-03-08T03:27:57.112Z,6.60
2019-03-08T03:30:24.857Z,6.60
2019-03-08T03:32:52.804Z,6.60
2019-03-08T03:35:20.533Z,6.60
2019-03-08T03:37:48.897Z,6.60
2019-03-08T03:40:16.292Z,6.60
2019-03-08T03:42:44.109Z,6.60
2019-03-08T03:45:12.091Z,6.60
2019-03-08T03:47:39.622Z,6.60
2019-03-08T03:50:08.681Z,6.60
2019-03-08T03:52:36.714Z,6.60
2019-03-08T03:55:05.323Z,6.60
2019-03-08T03:57:33.057Z,6.60
2019-03-08T04:00:00.703Z,6.60
2019-03-08T04:02:29.376Z,6.60
2019-03-08T04:04:57.018Z,6.60
2019-03-08T04:07:24.681Z,6.60
2019-03-08T04:09:52.518Z,6.60
2019-03-08T04:12:20.432Z,6.60
2019-03-08T04:14:48.582Z,6.60
2019-03-08T04:17:18.701Z,6.60
2019-03-08T04:19:46.969Z,6.60
2019-03-08T04:22:15.029Z,6.60
2019-03-08T04:24:42.811Z,6.60
2019-03-08T04:27:11.385Z,6.70
2019-03-08T04:29:39.294Z,6.60
2019-03-08T04:32:06.952Z,6.60
2019-03-08T04:34:34.572Z,6.60
2019-03-08T04:37:02.866Z,6.60
2019-03-08T04:39:30.580Z,6.60
2019-03-08T04:41:58.411Z,6.60
2019-03-08T04:44:25.883Z,6.60
2019-03-08T04:46:53.732Z,6.60
2019-03-08T04:49:21.413Z,6.60
2019-03-08T04:51:48.937Z,6.60
2019-03-08T04:54:16.509Z,6.60
2019-03-08T04:56:44.047Z,6.60
2019-03-08T04:59:11.839Z,6.60
2019-03-08T05:01:41.627Z,6.60
2019-03-08T05:04:14.434Z,6.60
2019-03-08T05:06:45.667Z,6.60
2019-03-08T05:09:17.355Z,6.60
2019-03-08T05:11:45.556Z,6.50
2019-03-08T05:14:13.321Z,6.40
2019-03-08T05:16:41.258Z,6.30
2019-03-08T05:19:09.096Z,6.30
2019-03-08T05:21:36.835Z,6.30
2019-03-08T05:24:05.886Z,6.30
2019-03-08T05:26:36.699Z,6.30
2019-03-08T05:29:04.607Z,6.30
2019-03-08T05:31:32.669Z,6.30
2019-03-08T05:34:00.890Z,6.30
2019-03-08T05:36:36.922Z,6.30
2019-03-08T05:39:14.843Z,6.30
2019-03-08T05:41:42.942Z,6.30
2019-03-08T05:44:11.331Z,6.30
2019-03-08T05:46:40.009Z,6.30
2019-03-08T05:49:09.279Z,6.30
2019-03-08T05:51:37.847Z,6.20
2019-03-08T05:54:07.311Z,6.20
2019-03-08T05:56:36.804Z,6.20
2019-03-08T05:59:04.702Z,6.20
2019-03-08T06:01:33.236Z,6.20
2019-03-08T06:04:02.053Z,6.20
2019-03-08T06:06:32.003Z,6.20
2019-03-08T06:09:01.836Z,6.20
2019-03-08T06:11:30.559Z,6.20
2019-03-08T06:14:34.401Z,6.20
2019-03-08T06:17:08.033Z,6.10
2019-03-08T06:29:30.816Z,6.00
2019-03-08T06:32:00.296Z,6.00
2019-03-08T06:34:29.862Z,6.00
2019-03-08T06:37:06.906Z,6.00
2019-03-08T06:39:37.390Z,6.00
2019-03-08T06:42:29.444Z,6.00
2019-03-08T06:45:07.859Z,6.00
2019-03-08T06:47:36.462Z,6.00
2019-03-08T06:50:05.472Z,6.00
2019-03-08T06:52:34.672Z,5.90
2019-03-08T06:55:02.456Z,5.90
2019-03-08T06:57:30.888Z,5.90
2019-03-08T07:00:17.526Z,5.90
2019-03-08T07:02:45.940Z,5.90
2019-03-08T07:05:13.609Z,5.90
2019-03-08T07:07:42.378Z,5.90
2019-03-08T07:10:09.942Z,5.80
2019-03-08T07:12:40.380Z,5.80
2019-03-08T07:15:12.869Z,5.80
2019-03-08T07:17:44.520Z,5.80
2019-03-08T07:20:34.733Z,5.80
2019-03-08T07:23:38.936Z,5.80
2019-03-08T07:26:40.681Z,5.80
2019-03-08T07:29:39.703Z,5.70
2019-03-08T07:32:34.626Z,5.60
2019-03-08T07:35:19.619Z,5.60
2019-03-08T07:42:05.386Z,5.30
2019-03-08T07:53:34.739Z,5.60
2019-03-08T07:56:42.286Z,5.60
2019-03-08T07:59:28.327Z,5.70
2019-03-08T08:02:16.213Z,5.70
2019-03-08T08:05:21.772Z,5.70
2019-03-08T08:08:20.931Z,5.80
2019-03-08T08:11:14.639Z,5.80
2019-03-08T08:13:58.291Z,5.70
2019-03-08T08:16:47.268Z,5.70
2019-03-08T08:19:40.978Z,5.60
2019-03-08T08:22:16.637Z,6.90
2019-03-08T08:25:13.524Z,8.00
2019-03-08T08:27:48.636Z,8.10
2019-03-08T08:30:24.248Z,8.60
2019-03-08T08:33:17.584Z,8.90
2019-03-08T08:36:04.326Z,9.30
2019-03-08T08:38:49.314Z,8.80
2019-03-08T08:41:29.040Z,8.20
2019-03-08T08:44:16.025Z,7.70
2019-03-08T08:47:03.182Z,7.30
2019-03-08T08:49:54.501Z,7.20
2019-03-08T08:52:40.436Z,7.10
2019-03-08T08:55:32.548Z,7.00
2019-03-08T08:58:31.959Z,7.00
2019-03-08T09:01:06.987Z,7.00
2019-03-08T09:04:02.913Z,7.10
2019-03-08T09:06:52.479Z,7.40
2019-03-08T09:09:34.378Z,7.40
2019-03-08T09:12:15.722Z,7.40
2019-03-08T09:15:08.013Z,7.50
2019-03-08T09:17:52.147Z,7.40
2019-03-08T09:20:33.199Z,7.30
2019-03-08T09:23:09.469Z,7.30
2019-03-08T09:26:13.374Z,7.40
2019-03-08T09:28:54.954Z,7.40
2019-03-08T09:31:45.539Z,7.50
2019-03-08T09:34:31.905Z,7.50
2019-03-08T09:37:19.708Z,7.50
2019-03-08T09:40:16.409Z,8.20
2019-03-08T09:43:21.953Z,8.90
2019-03-08T09:46:18.937Z,9.10
2019-03-08T09:49:09.060Z,9.90
2019-03-08T09:52:00.679Z,10.10
2019-03-08T09:54:54.351Z,9.90
2019-03-08T09:57:40.535Z,10.00
2019-03-08T10:00:29.995Z,10.20
2019-03-08T10:03:12.763Z,9.60
2019-03-08T10:05:59.096Z,9.20
2019-03-08T10:08:41.497Z,8.90
2019-03-08T10:11:33.389Z,8.60
2019-03-08T10:14:21.030Z,8.40
2019-03-08T10:17:11.850Z,8.10
2019-03-08T10:20:01.529Z,8.00
2019-03-08T10:22:44.145Z,8.00
2019-03-08T10:25:37.559Z,8.10
2019-03-08T10:28:25.513Z,8.10
2019-03-08T10:31:06.064Z,8.40
2019-03-08T10:33:46.590Z,9.00
2019-03-08T10:36:19.526Z,9.20
2019-03-08T10:39:16.286Z,9.70
2019-03-08T10:42:02.469Z,10.10
2019-03-08T10:44:56.642Z,10.40
2019-03-08T10:47:55.746Z,10.50
2019-03-08T10:50:36.985Z,10.80
2019-03-08T10:53:11.696Z,10.70
2019-03-08T10:55:48.215Z,10.30
2019-03-08T10:58:45.782Z,9.70
2019-03-08T11:01:33.785Z,9.60
2019-03-08T11:04:33.597Z,9.60
2019-03-08T11:07:31.530Z,9.60
2019-03-08T11:10:15.131Z,9.60
2019-03-08T11:13:17.494Z,9.70
2019-03-08T11:16:14.308Z,10.10
2019-03-08T11:19:08.471Z,9.80
2019-03-08T11:21:43.898Z,9.90
2019-03-08T11:24:31.688Z,10.00
2019-03-08T11:27:17.736Z,9.80
2019-03-08T11:30:09.590Z,9.50
2019-03-08T11:32:57.503Z,9.00
2019-03-08T11:35:40.782Z,8.70
2019-03-08T11:38:17.482Z,9.10
2019-03-08T11:40:57.898Z,9.40
2019-03-08T11:43:50.994Z,9.90
2019-03-08T11:46:31.994Z,10.10
2019-03-08T11:52:48.545Z,10.30
2019-03-08T11:55:27.694Z,10.60
2019-03-08T11:58:09.790Z,10.40
2019-03-08T12:01:00.761Z,10.30
2019-03-08T12:03:43.813Z,10.20
2019-03-08T12:06:25.296Z,10.30
2019-03-08T12:09:11.311Z,10.40
2019-03-08T12:12:16.769Z,10.90
2019-03-08T12:15:07.884Z,11.00
2019-03-08T12:17:48.584Z,10.30
2019-03-08T12:20:41.119Z,9.90
2019-03-08T12:23:40.257Z,9.50
2019-03-08T12:26:35.734Z,9.30
2019-03-08T12:29:17.609Z,9.30
2019-03-08T12:31:54.835Z,9.60
2019-03-08T12:35:00.368Z,9.80
2019-03-08T12:37:50.482Z,10.30
2019-03-08T12:40:32.641Z,10.00
2019-03-08T12:46:52.850Z,9.50
2019-03-08T12:49:36.316Z,10.00
2019-03-08T12:52:27.727Z,10.30
2019-03-08T12:55:33.279Z,10.40
2019-03-08T12:58:24.638Z,10.20
2019-03-08T13:01:21.941Z,10.10
2019-03-08T13:04:12.624Z,10.30
2019-03-08T13:07:03.437Z,10.30
2019-03-08T13:09:59.950Z,10.40
2019-03-08T13:12:36.875Z,10.60
2019-03-08T13:15:00.731Z,10.80
2019-03-08T13:17:40.461Z,11.00
2019-03-08T13:20:14.259Z,10.90
2019-03-08T13:23:01.168Z,10.50
2019-03-08T13:25:33.665Z,10.20
2019-03-08T13:28:02.560Z,10.30
2019-03-08T13:30:38.003Z,10.70
2019-03-08T13:33:21.368Z,10.80
2019-03-08T13:36:28.260Z,10.60
2019-03-08T13:38:56.330Z,10.40
2019-03-08T13:41:24.495Z,10.40
2019-03-08T13:43:53.706Z,10.50
2019-03-08T13:46:22.884Z,10.70
2019-03-08T13:49:00.888Z,10.70
2019-03-08T13:51:29.085Z,10.60
2019-03-08T13:54:00.077Z,10.90
2019-03-08T13:56:28.123Z,11.00
2019-03-08T13:58:58.548Z,10.90
2019-03-08T14:01:28.030Z,10.60
2019-03-08T14:03:56.120Z,10.10
2019-03-08T14:06:24.390Z,9.90
2019-03-08T14:08:52.431Z,9.80
2019-03-08T14:11:21.528Z,9.80
2019-03-08T14:13:49.695Z,10.00
2019-03-08T14:16:18.946Z,10.20
2019-03-08T14:18:46.698Z,10.30
2019-03-08T14:21:15.677Z,10.30
2019-03-08T14:24:03.128Z,10.30
2019-03-08T14:26:31.103Z,10.10
2019-03-08T14:28:59.306Z,10.10
2019-03-08T14:31:34.998Z,10.20
2019-03-08T14:34:03.087Z,10.30
2019-03-08T14:36:34.422Z,10.20
2019-03-08T14:39:04.270Z,10.30
2019-03-08T14:41:54.292Z,10.20
2019-03-08T14:44:39.925Z,9.90
2019-03-08T14:47:36.171Z,9.50
2019-03-08T14:50:05.579Z,9.40
2019-03-08T14:52:33.716Z,9.20
2019-03-08T14:55:01.699Z,9.20
2019-03-08T14:57:29.985Z,9.20
2019-03-08T15:00:00.611Z,9.30
2019-03-08T15:02:28.231Z,9.30
2019-03-08T15:04:56.592Z,9.30
2019-03-08T15:07:24.684Z,9.30
2019-03-08T15:09:54.014Z,9.30
2019-03-08T15:12:23.657Z,9.20
2019-03-08T15:14:51.891Z,9.10
2019-03-08T15:17:20.134Z,9.10
2019-03-08T15:20:15.147Z,9.00
2019-03-08T15:29:17.779Z,8.80
2019-03-08T15:31:49.294Z,8.80
2019-03-08T15:34:23.107Z,8.90
2019-03-08T15:36:58.068Z,8.90
2019-03-08T15:39:29.730Z,9.10
2019-03-08T15:41:58.654Z,9.20
2019-03-08T15:44:31.737Z,9.10
2019-03-08T15:47:00.533Z,9.00
2019-03-08T15:49:31.826Z,8.90
2019-03-08T15:52:07.209Z,8.90
2019-03-08T16:00:52.660Z,8.80
2019-03-08T16:03:23.681Z,8.60
2019-03-08T16:05:54.797Z,8.50
2019-03-08T16:08:26.075Z,8.40
2019-03-08T16:10:54.433Z,8.30
2019-03-08T16:13:23.372Z,8.30
2019-03-08T16:15:58.833Z,8.20
2019-03-08T16:18:28.031Z,8.10
2019-03-08T16:20:59.353Z,8.10
2019-03-08T16:23:30.701Z,8.10
2019-03-08T16:26:01.799Z,8.00
2019-03-08T16:28:34.515Z,8.00
2019-03-08T16:31:13.817Z,7.90
2019-03-08T16:33:46.873Z,7.90
2019-03-08T16:36:37.541Z,7.90
2019-03-08T16:39:34.400Z,7.80
2019-03-08T16:42:26.529Z,7.80
2019-03-08T16:45:17.988Z,7.70
2019-03-08T16:48:04.663Z,7.60
2019-03-08T16:50:44.934Z,7.50
2019-03-08T16:53:30.950Z,7.40
2019-03-08T16:56:06.563Z,7.40
2019-03-08T16:59:03.365Z,7.30
2019-03-08T17:01:56.899Z,7.20
2019-03-08T17:04:50.348Z,7.10
2019-03-08T17:07:47.846Z,7.00
2019-03-08T17:13:47.830Z,6.90
2019-03-08T17:16:47.528Z,6.80
2019-03-08T17:19:48.662Z,6.70
2019-03-08T17:22:40.604Z,6.60
2019-03-08T17:25:38.795Z,6.50
2019-03-08T17:28:44.215Z,6.40
2019-03-08T17:31:52.026Z,6.30
2019-03-08T17:35:18.073Z,6.30
2019-03-08T17:41:42.472Z,6.10
2019-03-08T17:44:32.906Z,6.00
2019-03-08T17:47:46.837Z,6.10
2019-03-08T17:50:48.014Z,6.10
2019-03-08T17:53:42.057Z,6.10
2019-03-08T17:56:35.023Z,6.20
2019-03-08T17:59:29.962Z,6.20
2019-03-08T18:02:23.260Z,6.30
2019-03-08T18:05:15.561Z,6.30
2019-03-08T18:07:58.643Z,6.30
2019-03-08T18:11:04.096Z,6.30
2019-03-08T18:13:42.590Z,6.30
2019-03-08T18:16:47.834Z,6.30
2019-03-08T18:19:52.954Z,6.30
2019-03-08T18:22:47.512Z,6.40
2019-03-08T18:25:42.548Z,6.40
2019-03-08T18:28:36.518Z,6.30
2019-03-08T18:31:23.374Z,6.40
2019-03-08T18:34:07.882Z,6.40
2019-03-08T18:37:09.295Z,6.40
2019-03-08T18:39:57.008Z,6.40
2019-03-08T18:42:53.841Z,6.40
2019-03-08T18:45:40.748Z,6.50
2019-03-08T18:48:33.763Z,6.50
2019-03-08T18:51:19.231Z,6.50
2019-03-08T18:54:09.581Z,6.40
2019-03-08T19:08:19.222Z,6.40
2019-03-08T19:11:04.515Z,6.40
2019-03-08T19:13:42.101Z,6.40
2019-03-08T19:16:25.521Z,6.30
2019-03-08T19:19:21.847Z,6.30
2019-03-08T19:22:13.321Z,6.20
2019-03-08T19:25:06.603Z,6.20
2019-03-08T19:28:00.610Z,6.20
2019-03-08T19:30:43.207Z,6.10
2019-03-08T19:33:24.423Z,6.10
2019-03-08T19:36:21.693Z,6.10
2019-03-08T19:39:12.239Z,6.10
2019-03-08T19:41:52.759Z,6.20
2019-03-08T19:44:52.544Z,6.30
2019-03-08T19:47:42.680Z,6.30
2019-03-08T19:50:45.292Z,6.40
2019-03-08T19:53:34.347Z,6.40
2019-03-08T19:56:37.550Z,6.40
2019-03-08T19:59:26.207Z,6.40
2019-03-08T20:02:04.354Z,6.40
2019-03-08T20:04:52.331Z,6.40
2019-03-08T20:07:41.823Z,6.40
2019-03-08T20:10:24.869Z,6.40
2019-03-08T20:13:05.995Z,6.40
2019-03-08T20:15:58.403Z,6.50
2019-03-08T20:18:45.512Z,6.50
2019-03-08T20:21:27.060Z,6.50
2019-03-08T20:24:14.668Z,6.40
2019-03-08T20:27:10.935Z,6.40
2019-03-08T20:29:49.104Z,6.40
2019-03-08T20:32:35.620Z,6.30
2019-03-08T20:35:10.020Z,6.30
2019-03-08T20:37:57.427Z,6.30
2019-03-08T20:41:03.115Z,6.30
2019-03-08T20:43:42.879Z,6.20
2019-03-08T20:46:14.966Z,6.20
2019-03-08T20:48:43.316Z,6.20
2019-03-08T20:51:11.971Z,6.10
2019-03-08T20:53:40.683Z,6.10
2019-03-08T20:56:08.702Z,6.10
2019-03-08T20:58:37.031Z,6.10
2019-03-08T21:01:19.587Z,6.10
2019-03-08T21:03:39.233Z,6.10
2019-03-08T21:06:07.995Z,6.00
2019-03-08T21:08:36.979Z,6.00
2019-03-08T21:11:05.848Z,6.00
2019-03-08T21:13:34.058Z,6.00
2019-03-08T21:16:02.621Z,6.00
2019-03-08T21:18:31.209Z,6.00
2019-03-08T21:20:59.388Z,6.00
2019-03-08T21:23:29.688Z,6.00
2019-03-08T21:26:18.052Z,6.00
2019-03-08T21:28:38.269Z,5.90
2019-03-08T21:31:15.432Z,5.80
2019-03-08T21:33:45.013Z,5.90
2019-03-08T21:36:16.516Z,5.80
2019-03-08T21:38:46.767Z,5.80
2019-03-08T21:41:14.792Z,5.80
2019-03-08T21:43:42.882Z,5.80
2019-03-08T21:46:11.160Z,5.80
2019-03-08T21:48:39.383Z,5.70
2019-03-08T21:51:07.424Z,5.70
2019-03-08T21:53:36.614Z,5.80
2019-03-08T21:56:04.493Z,5.80
2019-03-08T21:58:34.205Z,5.80
2019-03-08T22:01:02.772Z,5.80
2019-03-08T22:03:31.074Z,5.90
2019-03-08T22:05:59.953Z,5.90
2019-03-08T22:08:33.216Z,5.90
2019-03-08T22:11:23.549Z,5.90
2019-03-08T22:13:54.064Z,5.80
2019-03-08T22:16:24.078Z,5.80
2019-03-08T22:18:52.761Z,5.80
2019-03-08T22:21:24.941Z,5.70
2019-03-08T22:23:53.939Z,5.70
2019-03-08T22:26:21.833Z,5.70
2019-03-08T22:28:56.093Z,5.70
2019-03-08T22:31:24.787Z,5.70
2019-03-08T22:33:53.489Z,5.70
2019-03-08T22:36:23.011Z,5.70
2019-03-08T22:38:53.579Z,5.70
2019-03-08T22:41:22.751Z,5.80
2019-03-08T22:43:50.751Z,5.80
2019-03-08T22:46:18.866Z,5.80
2019-03-08T22:48:49.618Z,5.70
2019-03-08T22:51:19.018Z,5.80
2019-03-08T22:53:47.313Z,5.70
2019-03-08T22:56:15.260Z,5.70
2019-03-08T22:58:43.078Z,5.80
2019-03-08T23:01:13.074Z,5.80
2019-03-08T23:03:40.947Z,5.80
2019-03-08T23:06:09.839Z,5.80
2019-03-08T23:08:37.844Z,5.80
2019-03-08T23:11:07.072Z,5.80
2019-03-08T23:13:35.023Z,5.80
2019-03-08T23:16:03.911Z,5.80
2019-03-08T23:18:32.049Z,5.80
2019-03-08T23:21:01.239Z,5.80
2019-03-08T23:23:30.287Z,5.80
2019-03-08T23:25:59.668Z,5.80
2019-03-08T23:28:41.271Z,5.80
2019-03-08T23:31:18.313Z,5.80
2019-03-08T23:33:46.774Z,5.80
2019-03-08T23:36:15.007Z,5.90
2019-03-08T23:38:43.358Z,5.90
2019-03-08T23:41:12.143Z,5.90
2019-03-08T23:43:40.067Z,6.00
2019-03-08T23:46:07.752Z,5.90
2019-03-08T23:48:35.743Z,5.90
2019-03-08T23:51:03.895Z,5.90
2019-03-08T23:53:32.161Z,5.90
2019-03-08T23:56:02.415Z,5.90
2019-03-08T23:58:32.815Z,5.90
